sensor_id;sensor_type;location;lat;lon;timestamp;P1;durP1;ratioP1;P2;durP2;ratioP2
14470;SDS011;7321;50.802;4.336;2023-05-16T00:00:28;16.23;;;3.77;;
14470;SDS011;7321;50.802;4.336;2023-05-16T00:02:59;15.10;;;3.33;;
14470;SDS011;7321;50.802;4.336;2023-05-16T00:05:27;20.07;;;3.87;;
14470;SDS011;7321;50.802;4.336;2023-05-16T00:07:53;11.07;;;2.73;;
14470;SDS011;7321;50.802;4.336;2023-05-16T00:10:19;15.00;;;3.03;;
14470;SDS011;7321;50.802;4.336;2023-05-16T00:12:45;16.47;;;3.70;;
14470;SDS011;7321;50.802;4.336;2023-05-16T00:15:16;13.33;;;2.90;;
14470;SDS011;7321;50.802;4.336;2023-05-16T00:17:42;12.40;;;3.03;;
14470;SDS011;7321;50.802;4.336;2023-05-16T00:20:12;16.40;;;3.20;;
14470;SDS011;7321;50.802;4.336;2023-05-16T00:22:41;11.60;;;2.57;;
14470;SDS011;7321;50.802;4.336;2023-05-16T00:25:07;11.43;;;2.87;;
14470;SDS011;7321;50.802;4.336;2023-05-16T00:27:34;12.47;;;3.27;;
14470;SDS011;7321;50.802;4.336;2023-05-16T00:30:02;12.27;;;3.30;;
14470;SDS011;7321;50.802;4.336;2023-05-16T00:32:28;12.10;;;3.23;;
14470;SDS011;7321;50.802;4.336;2023-05-16T00:34:55;13.10;;;3.03;;
14470;SDS011;7321;50.802;4.336;2023-05-16T00:37:21;9.23;;;2.97;;
14470;SDS011;7321;50.802;4.336;2023-05-16T00:39:46;11.90;;;3.27;;
14470;SDS011;7321;50.802;4.336;2023-05-16T00:42:12;15.70;;;3.23;;
14470;SDS011;7321;50.802;4.336;2023-05-16T00:44:38;12.63;;;2.90;;
14470;SDS011;7321;50.802;4.336;2023-05-16T00:47:04;17.43;;;3.77;;
14470;SDS011;7321;50.802;4.336;2023-05-16T00:49:30;9.73;;;2.83;;
14470;SDS011;7321;50.802;4.336;2023-05-16T00:51:56;11.93;;;3.60;;
14470;SDS011;7321;50.802;4.336;2023-05-16T00:54:23;11.30;;;3.27;;
14470;SDS011;7321;50.802;4.336;2023-05-16T00:56:53;15.13;;;3.20;;
14470;SDS011;7321;50.802;4.336;2023-05-16T00:59:20;14.87;;;3.27;;
14470;SDS011;7321;50.802;4.336;2023-05-16T01:01:47;11.20;;;3.07;;
14470;SDS011;7321;50.802;4.336;2023-05-16T01:04:15;10.87;;;2.80;;
14470;SDS011;7321;50.802;4.336;2023-05-16T01:06:41;12.00;;;3.37;;
14470;SDS011;7321;50.802;4.336;2023-05-16T01:09:08;13.80;;;3.30;;
14470;SDS011;7321;50.802;4.336;2023-05-16T01:16:43;12.50;;;2.97;;
14470;SDS011;7321;50.802;4.336;2023-05-16T01:22:29;16.67;;;3.50;;
14470;SDS011;7321;50.802;4.336;2023-05-16T01:28:12;17.37;;;3.53;;
14470;SDS011;7321;50.802;4.336;2023-05-16T01:30:41;11.43;;;3.17;;
14470;SDS011;7321;50.802;4.336;2023-05-16T01:33:08;12.67;;;3.57;;
14470;SDS011;7321;50.802;4.336;2023-05-16T01:35:46;14.57;;;3.80;;
14470;SDS011;7321;50.802;4.336;2023-05-16T01:38:25;11.97;;;3.80;;
14470;SDS011;7321;50.802;4.336;2023-05-16T01:41:07;16.83;;;3.80;;
14470;SDS011;7321;50.802;4.336;2023-05-16T01:43:41;17.70;;;4.27;;
14470;SDS011;7321;50.802;4.336;2023-05-16T01:46:10;15.70;;;3.50;;
14470;SDS011;7321;50.802;4.336;2023-05-16T01:48:50;14.63;;;3.63;;
14470;SDS011;7321;50.802;4.336;2023-05-16T01:51:18;14.17;;;3.80;;
14470;SDS011;7321;50.802;4.336;2023-05-16T01:53:46;18.37;;;3.67;;
14470;SDS011;7321;50.802;4.336;2023-05-16T01:56:15;10.50;;;3.60;;
14470;SDS011;7321;50.802;4.336;2023-05-16T01:58:41;13.97;;;3.43;;
14470;SDS011;7321;50.802;4.336;2023-05-16T02:01:08;13.10;;;3.43;;
14470;SDS011;7321;50.802;4.336;2023-05-16T02:03:34;10.77;;;3.33;;
14470;SDS011;7321;50.802;4.336;2023-05-16T02:06:00;14.13;;;3.20;;
14470;SDS011;7321;50.802;4.336;2023-05-16T02:08:26;13.90;;;4.03;;
14470;SDS011;7321;50.802;4.336;2023-05-16T02:10:53;10.97;;;3.27;;
14470;SDS011;7321;50.802;4.336;2023-05-16T02:13:19;14.07;;;3.50;;
14470;SDS011;7321;50.802;4.336;2023-05-16T02:15:45;15.67;;;3.67;;
14470;SDS011;7321;50.802;4.336;2023-05-16T02:18:10;11.33;;;3.83;;
14470;SDS011;7321;50.802;4.336;2023-05-16T02:20:37;14.80;;;3.43;;
14470;SDS011;7321;50.802;4.336;2023-05-16T02:23:03;14.33;;;3.63;;
14470;SDS011;7321;50.802;4.336;2023-05-16T02:25:29;15.47;;;3.80;;
14470;SDS011;7321;50.802;4.336;2023-05-16T02:27:55;12.90;;;3.33;;
14470;SDS011;7321;50.802;4.336;2023-05-16T02:30:21;12.13;;;3.33;;
14470;SDS011;7321;50.802;4.336;2023-05-16T02:32:47;15.33;;;3.77;;
14470;SDS011;7321;50.802;4.336;2023-05-16T02:35:13;10.37;;;3.60;;
14470;SDS011;7321;50.802;4.336;2023-05-16T02:37:39;11.00;;;3.00;;
14470;SDS011;7321;50.802;4.336;2023-05-16T02:40:05;11.00;;;3.57;;
14470;SDS011;7321;50.802;4.336;2023-05-16T02:42:32;18.63;;;4.80;;
14470;SDS011;7321;50.802;4.336;2023-05-16T02:44:58;10.57;;;3.53;;
14470;SDS011;7321;50.802;4.336;2023-05-16T02:47:24;11.13;;;3.33;;
14470;SDS011;7321;50.802;4.336;2023-05-16T02:49:50;14.63;;;4.07;;
14470;SDS011;7321;50.802;4.336;2023-05-16T02:52:18;12.00;;;3.63;;
14470;SDS011;7321;50.802;4.336;2023-05-16T02:54:44;17.10;;;4.10;;
14470;SDS011;7321;50.802;4.336;2023-05-16T02:57:10;12.07;;;4.10;;
14470;SDS011;7321;50.802;4.336;2023-05-16T02:59:36;15.27;;;3.43;;
14470;SDS011;7321;50.802;4.336;2023-05-16T03:02:02;13.00;;;3.80;;
14470;SDS011;7321;50.802;4.336;2023-05-16T03:04:29;13.43;;;4.03;;
14470;SDS011;7321;50.802;4.336;2023-05-16T03:06:55;12.10;;;3.87;;
14470;SDS011;7321;50.802;4.336;2023-05-16T03:09:22;14.80;;;4.30;;
14470;SDS011;7321;50.802;4.336;2023-05-16T03:11:48;12.50;;;4.00;;
14470;SDS011;7321;50.802;4.336;2023-05-16T03:14:13;13.40;;;3.40;;
14470;SDS011;7321;50.802;4.336;2023-05-16T03:16:39;16.53;;;3.70;;
14470;SDS011;7321;50.802;4.336;2023-05-16T03:19:08;16.33;;;3.60;;
14470;SDS011;7321;50.802;4.336;2023-05-16T03:21:34;10.63;;;3.67;;
14470;SDS011;7321;50.802;4.336;2023-05-16T03:24:01;13.07;;;3.40;;
14470;SDS011;7321;50.802;4.336;2023-05-16T03:26:28;17.27;;;4.77;;
14470;SDS011;7321;50.802;4.336;2023-05-16T03:28:54;13.37;;;4.43;;
14470;SDS011;7321;50.802;4.336;2023-05-16T03:31:20;12.57;;;3.47;;
14470;SDS011;7321;50.802;4.336;2023-05-16T03:33:46;8.27;;;3.40;;
14470;SDS011;7321;50.802;4.336;2023-05-16T03:36:12;15.30;;;3.60;;
14470;SDS011;7321;50.802;4.336;2023-05-16T03:38:37;13.97;;;3.53;;
14470;SDS011;7321;50.802;4.336;2023-05-16T03:41:03;10.80;;;3.47;;
14470;SDS011;7321;50.802;4.336;2023-05-16T03:43:29;13.27;;;4.20;;
14470;SDS011;7321;50.802;4.336;2023-05-16T03:45:55;13.33;;;4.13;;
14470;SDS011;7321;50.802;4.336;2023-05-16T03:48:21;11.57;;;4.30;;
14470;SDS011;7321;50.802;4.336;2023-05-16T03:50:46;12.53;;;3.67;;
14470;SDS011;7321;50.802;4.336;2023-05-16T03:53:12;15.03;;;3.90;;
14470;SDS011;7321;50.802;4.336;2023-05-16T03:55:38;15.77;;;3.97;;
14470;SDS011;7321;50.802;4.336;2023-05-16T03:58:04;12.13;;;4.23;;
14470;SDS011;7321;50.802;4.336;2023-05-16T04:00:30;12.90;;;3.73;;
14470;SDS011;7321;50.802;4.336;2023-05-16T04:02:56;9.47;;;3.27;;
14470;SDS011;7321;50.802;4.336;2023-05-16T04:05:22;13.40;;;4.50;;
14470;SDS011;7321;50.802;4.336;2023-05-16T04:07:48;12.43;;;5.03;;
14470;SDS011;7321;50.802;4.336;2023-05-16T04:10:13;12.30;;;3.47;;
14470;SDS011;7321;50.802;4.336;2023-05-16T04:12:39;10.50;;;3.57;;
14470;SDS011;7321;50.802;4.336;2023-05-16T04:15:05;13.63;;;4.40;;
14470;SDS011;7321;50.802;4.336;2023-05-16T04:17:32;14.00;;;3.87;;
14470;SDS011;7321;50.802;4.336;2023-05-16T04:19:58;10.47;;;3.90;;
14470;SDS011;7321;50.802;4.336;2023-05-16T04:22:25;14.13;;;4.33;;
14470;SDS011;7321;50.802;4.336;2023-05-16T04:24:51;12.13;;;4.13;;
14470;SDS011;7321;50.802;4.336;2023-05-16T04:27:17;9.87;;;3.80;;
14470;SDS011;7321;50.802;4.336;2023-05-16T04:29:43;12.77;;;3.93;;
14470;SDS011;7321;50.802;4.336;2023-05-16T04:32:09;15.60;;;4.40;;
14470;SDS011;7321;50.802;4.336;2023-05-16T04:34:35;13.90;;;4.33;;
14470;SDS011;7321;50.802;4.336;2023-05-16T04:37:02;17.73;;;3.90;;
14470;SDS011;7321;50.802;4.336;2023-05-16T04:39:29;9.20;;;3.77;;
14470;SDS011;7321;50.802;4.336;2023-05-16T04:41:56;11.00;;;3.57;;
14470;SDS011;7321;50.802;4.336;2023-05-16T04:44:23;18.13;;;4.27;;
14470;SDS011;7321;50.802;4.336;2023-05-16T04:46:50;12.67;;;3.63;;
14470;SDS011;7321;50.802;4.336;2023-05-16T04:49:19;13.57;;;3.80;;
14470;SDS011;7321;50.802;4.336;2023-05-16T04:51:46;15.30;;;3.80;;
14470;SDS011;7321;50.802;4.336;2023-05-16T04:54:12;10.33;;;3.70;;
14470;SDS011;7321;50.802;4.336;2023-05-16T04:56:38;10.83;;;3.53;;
14470;SDS011;7321;50.802;4.336;2023-05-16T04:59:04;11.90;;;4.37;;
14470;SDS011;7321;50.802;4.336;2023-05-16T05:01:30;16.30;;;8.70;;
14470;SDS011;7321;50.802;4.336;2023-05-16T05:03:56;13.20;;;4.90;;
14470;SDS011;7321;50.802;4.336;2023-05-16T05:06:22;13.40;;;3.87;;
14470;SDS011;7321;50.802;4.336;2023-05-16T05:08:47;11.97;;;3.53;;
14470;SDS011;7321;50.802;4.336;2023-05-16T05:11:14;10.60;;;3.00;;
14470;SDS011;7321;50.802;4.336;2023-05-16T05:13:39;10.27;;;3.73;;
14470;SDS011;7321;50.802;4.336;2023-05-16T05:16:05;12.17;;;3.47;;
14470;SDS011;7321;50.802;4.336;2023-05-16T05:18:31;9.43;;;3.77;;
14470;SDS011;7321;50.802;4.336;2023-05-16T05:20:58;8.40;;;3.50;;
14470;SDS011;7321;50.802;4.336;2023-05-16T05:23:24;8.20;;;3.23;;
14470;SDS011;7321;50.802;4.336;2023-05-16T05:25:50;15.70;;;3.27;;
14470;SDS011;7321;50.802;4.336;2023-05-16T05:28:16;11.13;;;3.37;;
14470;SDS011;7321;50.802;4.336;2023-05-16T05:30:42;10.30;;;3.00;;
14470;SDS011;7321;50.802;4.336;2023-05-16T05:33:09;12.87;;;3.57;;
14470;SDS011;7321;50.802;4.336;2023-05-16T05:35:36;12.30;;;3.60;;
14470;SDS011;7321;50.802;4.336;2023-05-16T05:38:02;13.57;;;3.87;;
14470;SDS011;7321;50.802;4.336;2023-05-16T05:40:28;10.83;;;3.13;;
14470;SDS011;7321;50.802;4.336;2023-05-16T05:42:54;9.00;;;2.63;;
14470;SDS011;7321;50.802;4.336;2023-05-16T05:45:20;13.63;;;3.13;;
14470;SDS011;7321;50.802;4.336;2023-05-16T05:47:45;9.30;;;3.60;;
14470;SDS011;7321;50.802;4.336;2023-05-16T05:50:11;9.10;;;3.10;;
14470;SDS011;7321;50.802;4.336;2023-05-16T05:52:38;8.47;;;3.17;;
14470;SDS011;7321;50.802;4.336;2023-05-16T05:55:04;10.20;;;3.27;;
14470;SDS011;7321;50.802;4.336;2023-05-16T05:57:31;8.93;;;2.90;;
14470;SDS011;7321;50.802;4.336;2023-05-16T05:59:56;11.07;;;3.40;;
14470;SDS011;7321;50.802;4.336;2023-05-16T06:02:22;5.50;;;2.50;;
14470;SDS011;7321;50.802;4.336;2023-05-16T06:04:48;7.93;;;2.90;;
14470;SDS011;7321;50.802;4.336;2023-05-16T06:07:14;10.37;;;2.57;;
14470;SDS011;7321;50.802;4.336;2023-05-16T06:09:41;9.97;;;2.80;;
14470;SDS011;7321;50.802;4.336;2023-05-16T06:12:07;11.67;;;2.50;;
14470;SDS011;7321;50.802;4.336;2023-05-16T06:14:33;11.23;;;3.90;;
14470;SDS011;7321;50.802;4.336;2023-05-16T06:16:59;8.23;;;2.67;;
14470;SDS011;7321;50.802;4.336;2023-05-16T06:19:25;10.27;;;2.57;;
14470;SDS011;7321;50.802;4.336;2023-05-16T06:21:51;9.40;;;2.50;;
14470;SDS011;7321;50.802;4.336;2023-05-16T06:24:17;8.63;;;2.40;;
14470;SDS011;7321;50.802;4.336;2023-05-16T06:26:43;15.47;;;3.63;;
14470;SDS011;7321;50.802;4.336;2023-05-16T06:29:13;7.30;;;2.53;;
14470;SDS011;7321;50.802;4.336;2023-05-16T06:31:39;11.50;;;2.70;;
14470;SDS011;7321;50.802;4.336;2023-05-16T06:34:05;9.03;;;3.30;;
14470;SDS011;7321;50.802;4.336;2023-05-16T06:36:31;8.63;;;2.60;;
14470;SDS011;7321;50.802;4.336;2023-05-16T06:38:57;8.40;;;2.77;;
14470;SDS011;7321;50.802;4.336;2023-05-16T06:41:23;10.90;;;2.50;;
14470;SDS011;7321;50.802;4.336;2023-05-16T06:43:50;13.30;;;3.13;;
14470;SDS011;7321;50.802;4.336;2023-05-16T06:46:16;6.47;;;2.70;;
14470;SDS011;7321;50.802;4.336;2023-05-16T06:48:42;9.00;;;2.63;;
14470;SDS011;7321;50.802;4.336;2023-05-16T06:51:08;9.60;;;2.83;;
14470;SDS011;7321;50.802;4.336;2023-05-16T06:53:34;12.10;;;3.37;;
14470;SDS011;7321;50.802;4.336;2023-05-16T06:56:03;9.77;;;2.93;;
14470;SDS011;7321;50.802;4.336;2023-05-16T06:58:29;11.13;;;2.30;;
14470;SDS011;7321;50.802;4.336;2023-05-16T07:00:55;11.17;;;2.70;;
14470;SDS011;7321;50.802;4.336;2023-05-16T07:03:21;12.67;;;2.87;;
14470;SDS011;7321;50.802;4.336;2023-05-16T07:05:47;8.93;;;2.50;;
14470;SDS011;7321;50.802;4.336;2023-05-16T07:08:15;6.23;;;2.10;;
14470;SDS011;7321;50.802;4.336;2023-05-16T07:10:41;13.23;;;3.20;;
14470;SDS011;7321;50.802;4.336;2023-05-16T07:13:07;6.80;;;2.30;;
14470;SDS011;7321;50.802;4.336;2023-05-16T07:15:33;6.97;;;2.37;;
14470;SDS011;7321;50.802;4.336;2023-05-16T07:17:58;10.50;;;2.77;;
14470;SDS011;7321;50.802;4.336;2023-05-16T07:20:25;6.80;;;2.23;;
14470;SDS011;7321;50.802;4.336;2023-05-16T07:22:56;6.80;;;2.30;;
14470;SDS011;7321;50.802;4.336;2023-05-16T07:25:23;6.80;;;2.33;;
14470;SDS011;7321;50.802;4.336;2023-05-16T07:27:50;10.27;;;2.23;;
14470;SDS011;7321;50.802;4.336;2023-05-16T07:30:16;6.03;;;2.00;;
14470;SDS011;7321;50.802;4.336;2023-05-16T07:32:42;8.13;;;1.90;;
14470;SDS011;7321;50.802;4.336;2023-05-16T07:35:08;5.63;;;1.87;;
14470;SDS011;7321;50.802;4.336;2023-05-16T07:37:34;8.27;;;2.43;;
14470;SDS011;7321;50.802;4.336;2023-05-16T07:40:00;8.67;;;2.33;;
14470;SDS011;7321;50.802;4.336;2023-05-16T07:42:27;6.17;;;2.20;;
14470;SDS011;7321;50.802;4.336;2023-05-16T07:44:53;16.00;;;2.60;;
14470;SDS011;7321;50.802;4.336;2023-05-16T07:47:19;8.43;;;2.30;;
14470;SDS011;7321;50.802;4.336;2023-05-16T07:49:45;7.57;;;2.77;;
14470;SDS011;7321;50.802;4.336;2023-05-16T07:52:11;3.87;;;1.77;;
14470;SDS011;7321;50.802;4.336;2023-05-16T07:54:36;6.33;;;2.27;;
14470;SDS011;7321;50.802;4.336;2023-05-16T07:57:02;8.80;;;2.27;;
14470;SDS011;7321;50.802;4.336;2023-05-16T07:59:31;6.83;;;2.50;;
14470;SDS011;7321;50.802;4.336;2023-05-16T08:01:57;9.27;;;2.50;;
14470;SDS011;7321;50.802;4.336;2023-05-16T08:04:23;7.83;;;1.90;;
14470;SDS011;7321;50.802;4.336;2023-05-16T08:06:49;6.23;;;2.20;;
14470;SDS011;7321;50.802;4.336;2023-05-16T08:09:14;6.57;;;1.57;;
14470;SDS011;7321;50.802;4.336;2023-05-16T08:11:40;8.90;;;2.17;;
14470;SDS011;7321;50.802;4.336;2023-05-16T08:14:09;5.13;;;1.60;;
14470;SDS011;7321;50.802;4.336;2023-05-16T08:16:36;4.80;;;1.70;;
14470;SDS011;7321;50.802;4.336;2023-05-16T08:19:01;7.20;;;1.73;;
14470;SDS011;7321;50.802;4.336;2023-05-16T08:21:27;3.67;;;1.57;;
14470;SDS011;7321;50.802;4.336;2023-05-16T08:23:53;6.03;;;1.70;;
14470;SDS011;7321;50.802;4.336;2023-05-16T08:26:20;4.67;;;1.53;;
14470;SDS011;7321;50.802;4.336;2023-05-16T08:28:46;3.00;;;1.40;;
14470;SDS011;7321;50.802;4.336;2023-05-16T08:31:12;6.30;;;1.70;;
14470;SDS011;7321;50.802;4.336;2023-05-16T08:33:37;6.20;;;1.67;;
14470;SDS011;7321;50.802;4.336;2023-05-16T08:36:03;6.47;;;1.73;;
14470;SDS011;7321;50.802;4.336;2023-05-16T08:38:30;5.67;;;2.77;;
14470;SDS011;7321;50.802;4.336;2023-05-16T08:40:59;6.73;;;1.87;;
14470;SDS011;7321;50.802;4.336;2023-05-16T08:43:25;6.80;;;1.60;;
14470;SDS011;7321;50.802;4.336;2023-05-16T08:45:51;3.47;;;2.53;;
14470;SDS011;7321;50.802;4.336;2023-05-16T08:48:17;8.50;;;2.63;;
14470;SDS011;7321;50.802;4.336;2023-05-16T08:50:48;9.90;;;3.80;;
14470;SDS011;7321;50.802;4.336;2023-05-16T08:53:14;10.17;;;3.33;;
14470;SDS011;7321;50.802;4.336;2023-05-16T08:55:45;5.07;;;3.07;;
14470;SDS011;7321;50.802;4.336;2023-05-16T08:58:13;6.07;;;2.20;;
14470;SDS011;7321;50.802;4.336;2023-05-16T09:00:40;6.43;;;2.37;;
14470;SDS011;7321;50.802;4.336;2023-05-16T09:03:06;7.23;;;2.70;;
14470;SDS011;7321;50.802;4.336;2023-05-16T09:05:33;4.00;;;1.60;;
14470;SDS011;7321;50.802;4.336;2023-05-16T09:07:59;6.53;;;1.63;;
14470;SDS011;7321;50.802;4.336;2023-05-16T09:10:27;6.13;;;2.20;;
14470;SDS011;7321;50.802;4.336;2023-05-16T09:12:53;3.90;;;1.83;;
14470;SDS011;7321;50.802;4.336;2023-05-16T09:15:19;4.00;;;2.30;;
14470;SDS011;7321;50.802;4.336;2023-05-16T09:17:48;7.13;;;1.80;;
14470;SDS011;7321;50.802;4.336;2023-05-16T09:20:15;4.77;;;2.10;;
14470;SDS011;7321;50.802;4.336;2023-05-16T09:22:55;3.40;;;1.63;;
14470;SDS011;7321;50.802;4.336;2023-05-16T09:25:23;5.43;;;1.87;;
14470;SDS011;7321;50.802;4.336;2023-05-16T09:27:54;4.67;;;1.50;;
14470;SDS011;7321;50.802;4.336;2023-05-16T09:30:22;3.63;;;1.63;;
14470;SDS011;7321;50.802;4.336;2023-05-16T09:32:52;4.37;;;1.50;;
14470;SDS011;7321;50.802;4.336;2023-05-16T09:35:19;4.43;;;1.53;;
14470;SDS011;7321;50.802;4.336;2023-05-16T09:37:46;2.37;;;1.47;;
14470;SDS011;7321;50.802;4.336;2023-05-16T09:40:13;3.70;;;2.17;;
14470;SDS011;7321;50.802;4.336;2023-05-16T09:42:40;4.20;;;1.57;;
14470;SDS011;7321;50.802;4.336;2023-05-16T09:45:07;3.40;;;1.47;;
14470;SDS011;7321;50.802;4.336;2023-05-16T09:47:37;3.37;;;1.73;;
14470;SDS011;7321;50.802;4.336;2023-05-16T09:50:09;4.63;;;1.30;;
14470;SDS011;7321;50.802;4.336;2023-05-16T09:52:37;3.27;;;1.83;;
14470;SDS011;7321;50.802;4.336;2023-05-16T09:55:05;4.47;;;1.70;;
14470;SDS011;7321;50.802;4.336;2023-05-16T09:57:32;5.97;;;2.53;;
14470;SDS011;7321;50.802;4.336;2023-05-16T10:00:03;7.17;;;2.67;;
14470;SDS011;7321;50.802;4.336;2023-05-16T10:02:32;3.67;;;1.43;;
14470;SDS011;7321;50.802;4.336;2023-05-16T10:04:59;5.63;;;1.97;;
14470;SDS011;7321;50.802;4.336;2023-05-16T10:07:25;2.73;;;1.60;;
14470;SDS011;7321;50.802;4.336;2023-05-16T10:09:52;4.57;;;1.50;;
14470;SDS011;7321;50.802;4.336;2023-05-16T10:12:19;5.10;;;1.30;;
14470;SDS011;7321;50.802;4.336;2023-05-16T10:14:56;4.73;;;1.30;;
14470;SDS011;7321;50.802;4.336;2023-05-16T10:17:23;4.77;;;1.60;;
14470;SDS011;7321;50.802;4.336;2023-05-16T10:19:51;2.13;;;1.30;;
14470;SDS011;7321;50.802;4.336;2023-05-16T10:22:18;5.87;;;1.93;;
14470;SDS011;7321;50.802;4.336;2023-05-16T10:24:47;5.57;;;1.70;;
14470;SDS011;7321;50.802;4.336;2023-05-16T10:27:36;6.27;;;1.30;;
14470;SDS011;7321;50.802;4.336;2023-05-16T10:30:04;4.80;;;1.43;;
14470;SDS011;7321;50.802;4.336;2023-05-16T10:32:31;7.23;;;2.13;;
14470;SDS011;7321;50.802;4.336;2023-05-16T10:34:58;2.87;;;1.80;;
14470;SDS011;7321;50.802;4.336;2023-05-16T10:37:25;1.73;;;1.30;;
14470;SDS011;7321;50.802;4.336;2023-05-16T10:39:52;4.90;;;1.30;;
14470;SDS011;7321;50.802;4.336;2023-05-16T10:42:18;3.83;;;1.17;;
14470;SDS011;7321;50.802;4.336;2023-05-16T10:44:45;3.30;;;1.10;;
14470;SDS011;7321;50.802;4.336;2023-05-16T10:47:10;2.80;;;1.10;;
14470;SDS011;7321;50.802;4.336;2023-05-16T10:49:39;4.63;;;1.50;;
14470;SDS011;7321;50.802;4.336;2023-05-16T10:52:09;2.73;;;1.60;;
14470;SDS011;7321;50.802;4.336;2023-05-16T10:54:41;3.50;;;1.43;;
14470;SDS011;7321;50.802;4.336;2023-05-16T10:57:09;3.90;;;1.40;;
14470;SDS011;7321;50.802;4.336;2023-05-16T10:59:42;2.93;;;1.07;;
14470;SDS011;7321;50.802;4.336;2023-05-16T11:02:31;4.83;;;1.30;;
14470;SDS011;7321;50.802;4.336;2023-05-16T11:04:59;4.47;;;1.87;;
14470;SDS011;7321;50.802;4.336;2023-05-16T11:07:30;2.93;;;1.20;;
14470;SDS011;7321;50.802;4.336;2023-05-16T11:10:02;2.67;;;0.97;;
14470;SDS011;7321;50.802;4.336;2023-05-16T11:12:37;4.20;;;1.60;;
14470;SDS011;7321;50.802;4.336;2023-05-16T11:15:17;2.90;;;1.20;;
14470;SDS011;7321;50.802;4.336;2023-05-16T11:17:44;2.47;;;1.20;;
14470;SDS011;7321;50.802;4.336;2023-05-16T11:20:29;4.10;;;1.30;;
14470;SDS011;7321;50.802;4.336;2023-05-16T11:26:01;4.27;;;1.73;;
14470;SDS011;7321;50.802;4.336;2023-05-16T11:28:27;4.50;;;1.67;;
14470;SDS011;7321;50.802;4.336;2023-05-16T11:30:55;5.80;;;1.43;;
14470;SDS011;7321;50.802;4.336;2023-05-16T11:33:23;3.90;;;1.37;;
14470;SDS011;7321;50.802;4.336;2023-05-16T11:35:59;3.90;;;1.30;;
14470;SDS011;7321;50.802;4.336;2023-05-16T11:38:30;4.33;;;1.30;;
14470;SDS011;7321;50.802;4.336;2023-05-16T11:41:00;4.23;;;1.47;;
14470;SDS011;7321;50.802;4.336;2023-05-16T11:43:28;3.20;;;1.30;;
14470;SDS011;7321;50.802;4.336;2023-05-16T11:45:54;3.60;;;1.33;;
14470;SDS011;7321;50.802;4.336;2023-05-16T11:48:24;5.17;;;1.50;;
14470;SDS011;7321;50.802;4.336;2023-05-16T11:50:50;5.27;;;1.80;;
14470;SDS011;7321;50.802;4.336;2023-05-16T11:53:18;3.30;;;1.40;;
14470;SDS011;7321;50.802;4.336;2023-05-16T11:55:44;4.63;;;1.60;;
14470;SDS011;7321;50.802;4.336;2023-05-16T11:58:16;4.30;;;1.50;;
14470;SDS011;7321;50.802;4.336;2023-05-16T12:00:46;5.40;;;1.60;;
14470;SDS011;7321;50.802;4.336;2023-05-16T12:03:13;4.47;;;1.70;;
14470;SDS011;7321;50.802;4.336;2023-05-16T12:05:50;3.83;;;1.60;;
14470;SDS011;7321;50.802;4.336;2023-05-16T12:08:17;2.57;;;1.30;;
14470;SDS011;7321;50.802;4.336;2023-05-16T12:10:46;4.17;;;1.90;;
14470;SDS011;7321;50.802;4.336;2023-05-16T12:13:13;4.53;;;1.37;;
14470;SDS011;7321;50.802;4.336;2023-05-16T12:15:40;2.73;;;1.30;;
14470;SDS011;7321;50.802;4.336;2023-05-16T12:18:06;4.00;;;1.80;;
14470;SDS011;7321;50.802;4.336;2023-05-16T12:20:33;2.93;;;1.30;;
14470;SDS011;7321;50.802;4.336;2023-05-16T12:22:59;2.70;;;1.33;;
14470;SDS011;7321;50.802;4.336;2023-05-16T12:27:54;1.73;;;1.10;;
14470;SDS011;7321;50.802;4.336;2023-05-16T12:30:22;2.70;;;1.40;;
14470;SDS011;7321;50.802;4.336;2023-05-16T12:32:53;4.57;;;1.80;;
14470;SDS011;7321;50.802;4.336;2023-05-16T12:35:33;3.60;;;1.40;;
14470;SDS011;7321;50.802;4.336;2023-05-16T12:38:05;6.00;;;1.20;;
14470;SDS011;7321;50.802;4.336;2023-05-16T12:40:32;2.80;;;1.43;;
14470;SDS011;7321;50.802;4.336;2023-05-16T12:42:58;13.17;;;6.83;;
14470;SDS011;7321;50.802;4.336;2023-05-16T12:45:27;3.63;;;1.50;;
14470;SDS011;7321;50.802;4.336;2023-05-16T12:47:53;2.00;;;0.93;;
14470;SDS011;7321;50.802;4.336;2023-05-16T12:50:19;2.03;;;0.97;;
14470;SDS011;7321;50.802;4.336;2023-05-16T12:52:51;3.60;;;1.20;;
14470;SDS011;7321;50.802;4.336;2023-05-16T12:55:18;3.10;;;1.07;;
14470;SDS011;7321;50.802;4.336;2023-05-16T12:57:46;2.40;;;1.00;;
14470;SDS011;7321;50.802;4.336;2023-05-16T13:00:13;2.90;;;1.10;;
14470;SDS011;7321;50.802;4.336;2023-05-16T13:02:40;2.67;;;1.07;;
14470;SDS011;7321;50.802;4.336;2023-05-16T13:05:06;2.90;;;0.87;;
14470;SDS011;7321;50.802;4.336;2023-05-16T13:07:33;2.70;;;1.10;;
14470;SDS011;7321;50.802;4.336;2023-05-16T13:09:59;2.20;;;1.07;;
14470;SDS011;7321;50.802;4.336;2023-05-16T13:12:25;4.37;;;1.07;;
14470;SDS011;7321;50.802;4.336;2023-05-16T13:14:51;2.67;;;1.20;;
14470;SDS011;7321;50.802;4.336;2023-05-16T13:17:17;1.90;;;0.80;;
14470;SDS011;7321;50.802;4.336;2023-05-16T13:19:43;3.30;;;0.90;;
14470;SDS011;7321;50.802;4.336;2023-05-16T13:22:09;2.93;;;1.10;;
14470;SDS011;7321;50.802;4.336;2023-05-16T13:24:35;2.90;;;1.17;;
14470;SDS011;7321;50.802;4.336;2023-05-16T13:27:01;2.97;;;1.20;;
14470;SDS011;7321;50.802;4.336;2023-05-16T13:29:27;4.97;;;1.13;;
14470;SDS011;7321;50.802;4.336;2023-05-16T13:31:53;3.07;;;1.20;;
14470;SDS011;7321;50.802;4.336;2023-05-16T13:34:19;3.63;;;1.10;;
14470;SDS011;7321;50.802;4.336;2023-05-16T13:36:45;3.17;;;1.20;;
14470;SDS011;7321;50.802;4.336;2023-05-16T13:39:11;2.30;;;0.90;;
14470;SDS011;7321;50.802;4.336;2023-05-16T13:41:37;2.67;;;0.90;;
14470;SDS011;7321;50.802;4.336;2023-05-16T13:44:05;2.80;;;1.10;;
14470;SDS011;7321;50.802;4.336;2023-05-16T13:46:31;3.67;;;1.43;;
14470;SDS011;7321;50.802;4.336;2023-05-16T13:48:56;3.80;;;1.27;;
14470;SDS011;7321;50.802;4.336;2023-05-16T13:51:22;3.77;;;1.30;;
14470;SDS011;7321;50.802;4.336;2023-05-16T13:53:49;3.23;;;1.30;;
14470;SDS011;7321;50.802;4.336;2023-05-16T13:56:15;7.00;;;1.20;;
14470;SDS011;7321;50.802;4.336;2023-05-16T13:58:40;4.07;;;1.20;;
14470;SDS011;7321;50.802;4.336;2023-05-16T14:01:06;3.90;;;1.40;;
14470;SDS011;7321;50.802;4.336;2023-05-16T14:03:36;2.27;;;1.33;;
14470;SDS011;7321;50.802;4.336;2023-05-16T14:06:05;3.95;;;1.17;;
14470;SDS011;7321;50.802;4.336;2023-05-16T14:08:31;5.18;;;1.50;;
14470;SDS011;7321;50.802;4.336;2023-05-16T14:10:57;3.92;;;1.20;;
14470;SDS011;7321;50.802;4.336;2023-05-16T14:13:23;3.57;;;1.10;;
14470;SDS011;7321;50.802;4.336;2023-05-16T14:15:48;3.93;;;1.10;;
14470;SDS011;7321;50.802;4.336;2023-05-16T14:18:15;2.13;;;1.10;;
14470;SDS011;7321;50.802;4.336;2023-05-16T14:20:41;2.10;;;1.10;;
14470;SDS011;7321;50.802;4.336;2023-05-16T14:23:07;2.53;;;1.10;;
14470;SDS011;7321;50.802;4.336;2023-05-16T14:25:33;2.03;;;0.90;;
14470;SDS011;7321;50.802;4.336;2023-05-16T14:27:59;3.73;;;0.93;;
14470;SDS011;7321;50.802;4.336;2023-05-16T14:30:25;2.50;;;1.03;;
14470;SDS011;7321;50.802;4.336;2023-05-16T14:32:51;5.03;;;1.00;;
14470;SDS011;7321;50.802;4.336;2023-05-16T14:35:17;5.03;;;1.27;;
14470;SDS011;7321;50.802;4.336;2023-05-16T14:37:43;2.40;;;1.17;;
14470;SDS011;7321;50.802;4.336;2023-05-16T14:40:09;5.70;;;1.20;;
14470;SDS011;7321;50.802;4.336;2023-05-16T14:42:35;3.33;;;1.13;;
14470;SDS011;7321;50.802;4.336;2023-05-16T14:45:01;3.70;;;1.07;;
14470;SDS011;7321;50.802;4.336;2023-05-16T14:47:27;2.60;;;0.90;;
14470;SDS011;7321;50.802;4.336;2023-05-16T14:49:55;3.07;;;1.13;;
14470;SDS011;7321;50.802;4.336;2023-05-16T14:52:21;3.13;;;1.10;;
14470;SDS011;7321;50.802;4.336;2023-05-16T14:54:47;3.97;;;1.33;;
14470;SDS011;7321;50.802;4.336;2023-05-16T14:57:13;3.47;;;1.20;;
14470;SDS011;7321;50.802;4.336;2023-05-16T14:59:39;3.97;;;1.20;;
14470;SDS011;7321;50.802;4.336;2023-05-16T15:02:05;3.03;;;1.20;;
14470;SDS011;7321;50.802;4.336;2023-05-16T15:04:31;6.33;;;1.57;;
14470;SDS011;7321;50.802;4.336;2023-05-16T15:06:57;2.97;;;1.30;;
14470;SDS011;7321;50.802;4.336;2023-05-16T15:09:23;6.07;;;1.50;;
14470;SDS011;7321;50.802;4.336;2023-05-16T15:11:49;5.20;;;1.40;;